sensor_id;sensor_type;location;lat;lon;timestamp;pressure;altitude;pressure_sealevel;temperature;humidity
15634;BME280;14654;48.898;8.308;2022-10-16T00:00:54;100031.38;;;15.48;100.00
15634;BME280;14654;48.898;8.308;2022-10-16T00:03:19;100038.28;;;15.49;100.00
15634;BME280;14654;48.898;8.308;2022-10-16T00:05:44;100044.31;;;15.51;100.00
15634;BME280;14654;48.898;8.308;2022-10-16T00:08:11;100039.03;;;15.52;100.00
15634;BME280;14654;48.898;8.308;2022-10-16T00:10:37;100040.75;;;15.53;100.00
15634;BME280;14654;48.898;8.308;2022-10-16T00:13:03;100034.59;;;15.56;100.00
15634;BME280;14654;48.898;8.308;2022-10-16T00:15:29;100031.91;;;15.58;100.00
15634;BME280;14654;48.898;8.308;2022-10-16T00:17:55;100025.75;;;15.60;100.00
15634;BME280;14654;48.898;8.308;2022-10-16T00:20:20;100031.81;;;15.61;100.00
15634;BME280;14654;48.898;8.308;2022-10-16T00:22:45;100026.53;;;15.62;100.00
15634;BME280;14654;48.898;8.308;2022-10-16T00:25:11;100029.16;;;15.62;100.00
15634;BME280;14654;48.898;8.308;2022-10-16T00:27:36;100026.59;;;15.61;100.00
15634;BME280;14654;48.898;8.308;2022-10-16T00:30:02;100018.81;;;15.59;100.00
15634;BME280;14654;48.898;8.308;2022-10-16T00:32:28;100019.72;;;15.58;100.00
15634;BME280;14654;48.898;8.308;2022-10-16T00:34:53;100013.66;;;15.58;100.00
15634;BME280;14654;48.898;8.308;2022-10-16T00:37:21;100020.59;;;15.59;100.00
15634;BME280;14654;48.898;8.308;2022-10-16T00:39:47;100022.31;;;15.58;100.00
15634;BME280;14654;48.898;8.308;2022-10-16T00:42:15;100022.31;;;15.58;100.00
15634;BME280;14654;48.898;8.308;2022-10-16T00:44:55;100024.91;;;15.60;100.00
15634;BME280;14654;48.898;8.308;2022-10-16T00:47:29;100024.03;;;15.59;100.00
15634;BME280;14654;48.898;8.308;2022-10-16T00:50:28;100024.94;;;15.58;100.00
15634;BME280;14654;48.898;8.308;2022-10-16T00:52:55;100036.34;;;15.55;100.00
15634;BME280;14654;48.898;8.308;2022-10-16T00:55:22;100051.16;;;15.55;100.00
15634;BME280;14654;48.898;8.308;2022-10-16T00:57:48;100045.94;;;15.55;100.00
15634;BME280;14654;48.898;8.308;2022-10-16T01:00:20;100039.81;;;15.56;100.00
15634;BME280;14654;48.898;8.308;2022-10-16T01:02:57;100044.97;;;15.58;100.00
15634;BME280;14654;48.898;8.308;2022-10-16T01:05:26;100045.88;;;15.57;100.00
15634;BME280;14654;48.898;8.308;2022-10-16T01:08:01;100050.19;;;15.58;100.00
15634;BME280;14654;48.898;8.308;2022-10-16T01:11:15;100051.00;;;15.58;100.00
15634;BME280;14654;48.898;8.308;2022-10-16T01:13:46;100058.00;;;15.58;100.00
15634;BME280;14654;48.898;8.308;2022-10-16T01:16:20;100053.69;;;15.57;100.00
15634;BME280;14654;48.898;8.308;2022-10-16T01:19:16;100052.84;;;15.56;100.00
15634;BME280;14654;48.898;8.308;2022-10-16T01:21:46;100056.28;;;15.57;100.00
15634;BME280;14654;48.898;8.308;2022-10-16T01:24:46;100062.38;;;15.57;100.00
15634;BME280;14654;48.898;8.308;2022-10-16T01:27:24;100058.91;;;15.57;100.00
15634;BME280;14654;48.898;8.308;2022-10-16T01:30:30;100051.97;;;15.55;100.00
15634;BME280;14654;48.898;8.308;2022-10-16T01:33:30;100052.03;;;15.54;100.00
15634;BME280;14654;48.898;8.308;2022-10-16T01:36:03;100049.47;;;15.52;100.00
15634;BME280;14654;48.898;8.308;2022-10-16T01:38:34;100042.53;;;15.51;100.00
15634;BME280;14654;48.898;8.308;2022-10-16T01:41:08;100033.00;;;15.50;100.00
15634;BME280;14654;48.898;8.308;2022-10-16T01:43:42;100038.28;;;15.49;100.00
15634;BME280;14654;48.898;8.308;2022-10-16T01:46:10;100033.16;;;15.47;100.00
15634;BME280;14654;48.898;8.308;2022-10-16T01:48:36;100029.66;;;15.47;100.00
15634;BME280;14654;48.898;8.308;2022-10-16T01:51:12;100022.75;;;15.46;100.00
15634;BME280;14654;48.898;8.308;2022-10-16T01:53:39;100024.53;;;15.44;100.00
15634;BME280;14654;48.898;8.308;2022-10-16T01:56:09;100025.47;;;15.43;100.00
15634;BME280;14654;48.898;8.308;2022-10-16T01:58:41;100027.28;;;15.41;100.00
15634;BME280;14654;48.898;8.308;2022-10-16T02:01:10;100034.31;;;15.37;100.00
15634;BME280;14654;48.898;8.308;2022-10-16T02:03:40;100035.28;;;15.34;100.00
15634;BME280;14654;48.898;8.308;2022-10-16T02:06:07;100043.31;;;15.28;100.00
15634;BME280;14654;48.898;8.308;2022-10-16T02:08:34;100042.53;;;15.26;100.00
15634;BME280;14654;48.898;8.308;2022-10-16T02:11:01;100048.72;;;15.22;100.00
15634;BME280;14654;48.898;8.308;2022-10-16T02:13:37;100044.41;;;15.21;100.00
15634;BME280;14654;48.898;8.308;2022-10-16T02:16:04;100051.50;;;15.17;100.00
15634;BME280;14654;48.898;8.308;2022-10-16T02:18:29;100058.50;;;15.15;100.00
15634;BME280;14654;48.898;8.308;2022-10-16T02:21:03;100061.13;;;15.14;100.00
15634;BME280;14654;48.898;8.308;2022-10-16T02:26:03;100059.56;;;15.09;100.00
15634;BME280;14654;48.898;8.308;2022-10-16T02:28:45;100053.53;;;15.07;100.00
15634;BME280;14654;48.898;8.308;2022-10-16T02:31:16;100050.13;;;15.05;100.00
15634;BME280;14654;48.898;8.308;2022-10-16T02:33:45;100058.00;;;15.04;100.00
15634;BME280;14654;48.898;8.308;2022-10-16T02:36:11;100056.31;;;15.01;100.00
15634;BME280;14654;48.898;8.308;2022-10-16T02:38:37;100059.88;;;14.99;100.00
15634;BME280;14654;48.898;8.308;2022-10-16T02:41:04;100054.72;;;14.97;100.00
15634;BME280;14654;48.898;8.308;2022-10-16T02:43:29;100054.75;;;14.96;100.00
15634;BME280;14654;48.898;8.308;2022-10-16T02:45:54;100047.00;;;14.94;100.00
15634;BME280;14654;48.898;8.308;2022-10-16T02:48:20;100063.56;;;14.91;100.00
15634;BME280;14654;48.898;8.308;2022-10-16T02:50:45;100062.78;;;14.89;100.00
15634;BME280;14654;48.898;8.308;2022-10-16T02:53:10;100060.19;;;14.89;100.00
15634;BME280;14654;48.898;8.308;2022-10-16T02:55:36;100061.06;;;14.88;100.00
15634;BME280;14654;48.898;8.308;2022-10-16T02:58:01;100063.69;;;14.88;100.00
15634;BME280;14654;48.898;8.308;2022-10-16T03:00:26;100066.31;;;14.87;100.00
15634;BME280;14654;48.898;8.308;2022-10-16T03:02:52;100074.13;;;14.87;100.00
15634;BME280;14654;48.898;8.308;2022-10-16T03:05:17;100071.66;;;14.82;100.00
15634;BME280;14654;48.898;8.308;2022-10-16T03:07:42;100072.56;;;14.81;100.00
15634;BME280;14654;48.898;8.308;2022-10-16T03:10:08;100076.97;;;14.79;100.00
15634;BME280;14654;48.898;8.308;2022-10-16T03:12:33;100079.63;;;14.77;100.00
15634;BME280;14654;48.898;8.308;2022-10-16T03:14:59;100083.16;;;14.75;100.00
15634;BME280;14654;48.898;8.308;2022-10-16T03:17:25;100079.78;;;14.73;100.00
15634;BME280;14654;48.898;8.308;2022-10-16T03:19:50;100077.16;;;14.73;100.00
15634;BME280;14654;48.898;8.308;2022-10-16T03:22:16;100073.69;;;14.72;100.00
15634;BME280;14654;48.898;8.308;2022-10-16T03:24:41;100076.28;;;14.72;100.00
15634;BME280;14654;48.898;8.308;2022-10-16T03:27:06;100078.97;;;14.71;100.00
15634;BME280;14654;48.898;8.308;2022-10-16T03:29:32;100074.59;;;14.71;100.00
15634;BME280;14654;48.898;8.308;2022-10-16T03:31:58;100079.78;;;14.71;100.00
15634;BME280;14654;48.898;8.308;2022-10-16T03:34:24;100083.28;;;14.70;100.00
15634;BME280;14654;48.898;8.308;2022-10-16T03:36:49;100078.97;;;14.69;100.00
15634;BME280;14654;48.898;8.308;2022-10-16T03:39:14;100087.66;;;14.70;100.00
15634;BME280;14654;48.898;8.308;2022-10-16T03:41:40;100082.47;;;14.70;100.00
15634;BME280;14654;48.898;8.308;2022-10-16T03:44:08;100084.16;;;14.71;100.00
15634;BME280;14654;48.898;8.308;2022-10-16T03:46:33;100082.47;;;14.70;100.00
15634;BME280;14654;48.898;8.308;2022-10-16T03:48:59;100078.09;;;14.70;100.00
15634;BME280;14654;48.898;8.308;2022-10-16T03:51:24;100079.84;;;14.70;100.00
15634;BME280;14654;48.898;8.308;2022-10-16T03:53:49;100075.53;;;14.69;100.00
15634;BME280;14654;48.898;8.308;2022-10-16T03:56:15;100073.81;;;14.68;100.00
15634;BME280;14654;48.898;8.308;2022-10-16T03:58:40;100074.69;;;14.67;100.00
15634;BME280;14654;48.898;8.308;2022-10-16T04:01:05;100073.84;;;14.66;100.00
15634;BME280;14654;48.898;8.308;2022-10-16T04:03:31;100076.47;;;14.64;100.00
15634;BME280;14654;48.898;8.308;2022-10-16T04:05:56;100079.09;;;14.64;100.00
15634;BME280;14654;48.898;8.308;2022-10-16T04:08:21;100079.16;;;14.61;100.00
15634;BME280;14654;48.898;8.308;2022-10-16T04:10:47;100085.28;;;14.60;100.00
15634;BME280;14654;48.898;8.308;2022-10-16T04:13:12;100083.59;;;14.59;100.00
15634;BME280;14654;48.898;8.308;2022-10-16T04:15:38;100093.16;;;14.59;100.00
15634;BME280;14654;48.898;8.308;2022-10-16T04:18:04;100094.09;;;14.56;100.00
15634;BME280;14654;48.898;8.308;2022-10-16T04:20:30;100103.69;;;14.54;100.00
15634;BME280;14654;48.898;8.308;2022-10-16T04:22:55;100101.13;;;14.53;100.00
15634;BME280;14654;48.898;8.308;2022-10-16T04:25:23;100105.53;;;14.51;100.00
15634;BME280;14654;48.898;8.308;2022-10-16T04:27:48;100110.75;;;14.51;100.00
15634;BME280;14654;48.898;8.308;2022-10-16T04:30:14;100116.75;;;14.53;100.00
15634;BME280;14654;48.898;8.308;2022-10-16T04:32:40;100110.63;;;14.54;100.00
15634;BME280;14654;48.898;8.308;2022-10-16T04:35:06;100120.94;;;14.58;100.00
15634;BME280;14654;48.898;8.308;2022-10-16T04:37:32;100117.41;;;14.61;100.00
15634;BME280;14654;48.898;8.308;2022-10-16T04:39:57;100126.03;;;14.63;100.00
15634;BME280;14654;48.898;8.308;2022-10-16T04:42:22;100117.19;;;14.67;100.00
15634;BME280;14654;48.898;8.308;2022-10-16T04:44:48;100121.53;;;14.70;100.00
15634;BME280;14654;48.898;8.308;2022-10-16T04:47:13;100123.19;;;14.72;100.00
15634;BME280;14654;48.898;8.308;2022-10-16T04:49:39;100118.84;;;14.73;100.00
15634;BME280;14654;48.898;8.308;2022-10-16T04:52:04;100126.66;;;14.73;100.00
15634;BME280;14654;48.898;8.308;2022-10-16T04:54:29;100128.38;;;14.72;100.00
15634;BME280;14654;48.898;8.308;2022-10-16T04:56:55;100129.25;;;14.73;100.00
15634;BME280;14654;48.898;8.308;2022-10-16T04:59:21;100130.16;;;14.72;100.00
15634;BME280;14654;48.898;8.308;2022-10-16T05:01:46;100140.56;;;14.72;100.00
15634;BME280;14654;48.898;8.308;2022-10-16T05:04:12;100137.97;;;14.72;100.00
15634;BME280;14654;48.898;8.308;2022-10-16T05:06:37;100135.38;;;14.70;100.00
15634;BME280;14654;48.898;8.308;2022-10-16T05:09:04;100135.38;;;14.72;100.00
15634;BME280;14654;48.898;8.308;2022-10-16T05:11:29;100131.88;;;14.71;100.00
15634;BME280;14654;48.898;8.308;2022-10-16T05:13:55;100141.47;;;14.71;100.00
15634;BME280;14654;48.898;8.308;2022-10-16T05:16:20;100142.38;;;14.70;100.00
15634;BME280;14654;48.898;8.308;2022-10-16T05:18:45;100142.38;;;14.68;100.00
15634;BME280;14654;48.898;8.308;2022-10-16T05:21:11;100145.00;;;14.68;100.00
15634;BME280;14654;48.898;8.308;2022-10-16T05:23:36;100147.56;;;14.70;100.00
15634;BME280;14654;48.898;8.308;2022-10-16T05:26:01;100153.63;;;14.70;100.00
15634;BME280;14654;48.898;8.308;2022-10-16T05:28:28;100145.81;;;14.70;100.00
15634;BME280;14654;48.898;8.308;2022-10-16T05:30:55;100145.81;;;14.70;100.00
15634;BME280;14654;48.898;8.308;2022-10-16T05:33:22;100142.31;;;14.71;100.00
15634;BME280;14654;48.898;8.308;2022-10-16T05:35:47;100142.38;;;14.70;100.00
15634;BME280;14654;48.898;8.308;2022-10-16T05:38:13;100144.97;;;14.70;100.00
15634;BME280;14654;48.898;8.308;2022-10-16T05:40:38;100153.63;;;14.70;100.00
15634;BME280;14654;48.898;8.308;2022-10-16T05:43:04;100147.56;;;14.70;100.00
15634;BME280;14654;48.898;8.308;2022-10-16T05:45:30;100146.69;;;14.71;100.00
15634;BME280;14654;48.898;8.308;2022-10-16T05:47:55;100149.28;;;14.71;100.00
15634;BME280;14654;48.898;8.308;2022-10-16T05:50:20;100148.41;;;14.70;100.00
15634;BME280;14654;48.898;8.308;2022-10-16T05:52:46;100141.47;;;14.71;100.00
15634;BME280;14654;48.898;8.308;2022-10-16T05:55:11;100146.69;;;14.69;100.00
15634;BME280;14654;48.898;8.308;2022-10-16T05:57:36;100145.00;;;14.68;100.00
15634;BME280;14654;48.898;8.308;2022-10-16T06:00:02;100156.28;;;14.67;100.00
15634;BME280;14654;48.898;8.308;2022-10-16T06:02:28;100170.22;;;14.66;100.00
15634;BME280;14654;48.898;8.308;2022-10-16T06:04:53;100170.25;;;14.64;100.00
15634;BME280;14654;48.898;8.308;2022-10-16T06:07:19;100170.31;;;14.63;100.00
15634;BME280;14654;48.898;8.308;2022-10-16T06:09:48;100177.25;;;14.62;100.00
15634;BME280;14654;48.898;8.308;2022-10-16T06:12:13;100184.22;;;14.62;100.00
15634;BME280;14654;48.898;8.308;2022-10-16T06:14:38;100174.69;;;14.61;100.00
15634;BME280;14654;48.898;8.308;2022-10-16T06:17:04;100166.94;;;14.59;100.00
15634;BME280;14654;48.898;8.308;2022-10-16T06:19:29;100158.25;;;14.59;100.00
15634;BME280;14654;48.898;8.308;2022-10-16T06:21:54;100153.91;;;14.59;100.00
15634;BME280;14654;48.898;8.308;2022-10-16T06:24:20;100163.41;;;14.60;100.00
15634;BME280;14654;48.898;8.308;2022-10-16T06:26:45;100170.31;;;14.61;100.00
15634;BME280;14654;48.898;8.308;2022-10-16T06:29:10;100176.41;;;14.62;100.00
15634;BME280;14654;48.898;8.308;2022-10-16T06:31:36;100180.66;;;14.64;100.00
15634;BME280;14654;48.898;8.308;2022-10-16T06:34:01;100181.47;;;14.68;100.00
15634;BME280;14654;48.898;8.308;2022-10-16T06:36:27;100186.56;;;14.73;100.00
15634;BME280;14654;48.898;8.308;2022-10-16T06:38:53;100176.91;;;14.76;100.00
15634;BME280;14654;48.898;8.308;2022-10-16T06:41:20;100181.97;;;14.81;100.00
15634;BME280;14654;48.898;8.308;2022-10-16T06:43:46;100181.00;;;14.85;100.00
15634;BME280;14654;48.898;8.308;2022-10-16T06:46:15;100173.94;;;14.89;100.00
15634;BME280;14654;48.898;8.308;2022-10-16T06:48:41;100173.88;;;14.92;100.00
15634;BME280;14654;48.898;8.308;2022-10-16T06:51:09;100173.78;;;14.95;100.00
15634;BME280;14654;48.898;8.308;2022-10-16T06:53:37;100184.97;;;14.99;100.00
15634;BME280;14654;48.898;8.308;2022-10-16T06:56:16;100184.81;;;15.03;100.00
15634;BME280;14654;48.898;8.308;2022-10-16T06:58:43;100189.06;;;15.07;100.00
15634;BME280;14654;48.898;8.308;2022-10-16T07:01:09;100184.59;;;15.11;100.00
15634;BME280;14654;48.898;8.308;2022-10-16T07:03:40;100192.28;;;15.16;100.00
15634;BME280;14654;48.898;8.308;2022-10-16T07:06:06;100194.72;;;15.22;100.00
15634;BME280;14654;48.898;8.308;2022-10-16T07:08:37;100193.53;;;15.32;100.00
15634;BME280;14654;48.898;8.308;2022-10-16T07:11:04;100200.13;;;15.44;100.00
15634;BME280;14654;48.898;8.308;2022-10-16T07:13:33;100203.25;;;15.55;100.00
15634;BME280;14654;48.898;8.308;2022-10-16T07:16:04;100203.75;;;15.67;100.00
15634;BME280;14654;48.898;8.308;2022-10-16T07:18:29;100209.56;;;15.77;100.00
15634;BME280;14654;48.898;8.308;2022-10-16T07:21:06;100211.91;;;15.86;100.00
15634;BME280;14654;48.898;8.308;2022-10-16T07:23:32;100215.19;;;15.93;100.00
15634;BME280;14654;48.898;8.308;2022-10-16T07:25:57;100215.75;;;16.03;100.00
15634;BME280;14654;48.898;8.308;2022-10-16T07:28:22;100217.16;;;16.11;100.00
15634;BME280;14654;48.898;8.308;2022-10-16T07:30:48;100222.09;;;16.21;100.00
15634;BME280;14654;48.898;8.308;2022-10-16T07:33:13;100218.44;;;16.26;100.00
15634;BME280;14654;48.898;8.308;2022-10-16T07:35:47;100221.78;;;16.30;100.00
15634;BME280;14654;48.898;8.308;2022-10-16T07:38:12;100233.84;;;16.34;100.00
15634;BME280;14654;48.898;8.308;2022-10-16T07:40:38;100239.63;;;16.42;100.00
15634;BME280;14654;48.898;8.308;2022-10-16T07:43:03;100238.53;;;16.50;100.00
15634;BME280;14654;48.898;8.308;2022-10-16T07:45:30;100248.66;;;16.59;100.00
15634;BME280;14654;48.898;8.308;2022-10-16T07:47:55;100254.47;;;16.67;100.00
15634;BME280;14654;48.898;8.308;2022-10-16T07:50:20;100259.47;;;16.73;100.00
15634;BME280;14654;48.898;8.308;2022-10-16T07:52:46;100261.88;;;16.80;100.00
15634;BME280;14654;48.898;8.308;2022-10-16T07:55:11;100252.81;;;16.90;100.00
15634;BME280;14654;48.898;8.308;2022-10-16T07:57:36;100266.50;;;16.98;100.00
15634;BME280;14654;48.898;8.308;2022-10-16T08:00:02;100269.78;;;17.03;100.00
15634;BME280;14654;48.898;8.308;2022-10-16T08:02:28;100273.16;;;17.07;100.00
15634;BME280;14654;48.898;8.308;2022-10-16T08:04:53;100275.34;;;17.18;100.00
15634;BME280;14654;48.898;8.308;2022-10-16T08:07:18;100277.47;;;17.32;100.00
15634;BME280;14654;48.898;8.308;2022-10-16T08:09:43;100263.19;;;17.41;100.00
15634;BME280;14654;48.898;8.308;2022-10-16T08:12:09;100268.94;;;17.50;100.00
15634;BME280;14654;48.898;8.308;2022-10-16T08:14:35;100267.66;;;17.61;100.00
15634;BME280;14654;48.898;8.308;2022-10-16T08:17:01;100255.16;;;17.69;100.00
15634;BME280;14654;48.898;8.308;2022-10-16T08:19:27;100255.63;;;17.79;100.00
15634;BME280;14654;48.898;8.308;2022-10-16T08:21:52;100245.72;;;17.87;100.00
15634;BME280;14654;48.898;8.308;2022-10-16T08:24:18;100256.72;;;17.95;100.00
15634;BME280;14654;48.898;8.308;2022-10-16T08:26:43;100254.09;;;17.95;100.00
15634;BME280;14654;48.898;8.308;2022-10-16T08:29:08;100259.59;;;17.89;100.00
15634;BME280;14654;48.898;8.308;2022-10-16T08:31:33;100267.50;;;17.88;100.00
15634;BME280;14654;48.898;8.308;2022-10-16T08:33:59;100270.97;;;17.88;100.00
15634;BME280;14654;48.898;8.308;2022-10-16T08:36:25;100275.94;;;17.94;100.00
15634;BME280;14654;48.898;8.308;2022-10-16T08:38:50;100278.13;;;18.07;100.00
15634;BME280;14654;48.898;8.308;2022-10-16T08:49:26;100303.66;;;19.07;100.00
15634;BME280;14654;48.898;8.308;2022-10-16T08:51:52;100304.88;;;19.39;100.00
15634;BME280;14654;48.898;8.308;2022-10-16T08:56:57;100302.72;;;19.67;100.00
15634;BME280;14654;48.898;8.308;2022-10-16T08:59:26;100306.84;;;19.72;100.00
15634;BME280;14654;48.898;8.308;2022-10-16T09:01:52;100318.06;;;19.76;100.00
15634;BME280;14654;48.898;8.308;2022-10-16T09:07:12;100329.03;;;19.84;100.00
15634;BME280;14654;48.898;8.308;2022-10-16T09:10:46;100332.13;;;19.94;100.00
15634;BME280;14654;48.898;8.308;2022-10-16T09:13:14;100333.38;;;20.04;100.00
15634;BME280;14654;48.898;8.308;2022-10-16T09:15:47;100344.38;;;20.13;100.00
15634;BME280;14654;48.898;8.308;2022-10-16T09:18:29;100336.13;;;20.20;100.00
15634;BME280;14654;48.898;8.308;2022-10-16T09:23:29;100351.75;;;20.23;100.00
15634;BME280;14654;48.898;8.308;2022-10-16T09:25:58;100346.63;;;20.20;100.00
15634;BME280;14654;48.898;8.308;2022-10-16T09:28:24;100354.44;;;20.22;100.00
15634;BME280;14654;48.898;8.308;2022-10-16T09:30:49;100357.28;;;20.17;100.00
15634;BME280;14654;48.898;8.308;2022-10-16T09:33:18;100371.28;;;20.18;100.00
15634;BME280;14654;48.898;8.308;2022-10-16T09:35:46;100361.34;;;20.24;100.00
15634;BME280;14654;48.898;8.308;2022-10-16T09:38:30;100371.53;;;20.31;100.00
15634;BME280;14654;48.898;8.308;2022-10-16T09:40:58;100372.31;;;20.33;100.00
15634;BME280;14654;48.898;8.308;2022-10-16T09:43:27;100374.88;;;20.34;100.00
15634;BME280;14654;48.898;8.308;2022-10-16T09:46:02;100373.19;;;20.33;100.00
15634;BME280;14654;48.898;8.308;2022-10-16T09:48:37;100375.72;;;20.35;100.00
15634;BME280;14654;48.898;8.308;2022-10-16T09:51:06;100382.69;;;20.36;100.00
15634;BME280;14654;48.898;8.308;2022-10-16T09:53:42;100383.38;;;20.39;100.00
15634;BME280;14654;48.898;8.308;2022-10-16T09:56:10;100379.47;;;20.48;100.00
15634;BME280;14654;48.898;8.308;2022-10-16T09:58:42;100386.03;;;20.57;100.00
15634;BME280;14654;48.898;8.308;2022-10-16T10:01:13;100377.09;;;20.61;100.00
15634;BME280;14654;48.898;8.308;2022-10-16T10:03:41;100390.78;;;20.68;100.00
15634;BME280;14654;48.898;8.308;2022-10-16T10:06:17;100393.16;;;20.73;100.00
15634;BME280;14654;48.898;8.308;2022-10-16T10:08:58;100392.81;;;20.80;100.00
15634;BME280;14654;48.898;8.308;2022-10-16T10:17:00;100394.00;;;20.92;100.00
15634;BME280;14654;48.898;8.308;2022-10-16T10:19:27;100398.38;;;20.92;100.00
15634;BME280;14654;48.898;8.308;2022-10-16T10:21:52;100401.34;;;20.85;100.00
15634;BME280;14654;48.898;8.308;2022-10-16T10:24:19;100399.09;;;20.78;100.00
15634;BME280;14654;48.898;8.308;2022-10-16T10:26:49;100402.84;;;20.72;100.00
15634;BME280;14654;48.898;8.308;2022-10-16T10:29:31;100398.44;;;20.73;100.00
15634;BME280;14654;48.898;8.308;2022-10-16T10:35:17;100397.34;;;20.59;100.00
15634;BME280;14654;48.898;8.308;2022-10-16T10:45:42;100388.97;;;20.51;100.00
15634;BME280;14654;48.898;8.308;2022-10-16T10:51:03;100396.81;;;20.88;100.00
15634;BME280;14654;48.898;8.308;2022-10-16T10:58:57;100404.00;;;21.37;100.00
15634;BME280;14654;48.898;8.308;2022-10-16T11:01:38;100400.72;;;21.49;100.00
15634;BME280;14654;48.898;8.308;2022-10-16T11:07:06;100400.72;;;21.67;100.00
15634;BME280;14654;48.898;8.308;2022-10-16T11:09:47;100401.75;;;21.80;100.00
15634;BME280;14654;48.898;8.308;2022-10-16T11:12:19;100396.72;;;21.91;100.00
15634;BME280;14654;48.898;8.308;2022-10-16T11:14:56;100396.97;;;22.03;100.00
15634;BME280;14654;48.898;8.308;2022-10-16T11:17:46;100397.25;;;22.14;100.00
15634;BME280;14654;48.898;8.308;2022-10-16T11:20:16;100382.72;;;22.23;100.00
15634;BME280;14654;48.898;8.308;2022-10-16T11:22:48;100378.16;;;22.41;100.00
15634;BME280;14654;48.898;8.308;2022-10-16T11:25:22;100382.31;;;22.61;100.00
15634;BME280;14654;48.898;8.308;2022-10-16T11:27:55;100371.91;;;22.74;100.00
15634;BME280;14654;48.898;8.308;2022-10-16T11:30:27;100368.72;;;22.83;100.00
15634;BME280;14654;48.898;8.308;2022-10-16T11:38:30;100369.03;;;22.93;100.00
15634;BME280;14654;48.898;8.308;2022-10-16T11:41:03;100371.38;;;22.98;100.00
15634;BME280;14654;48.898;8.308;2022-10-16T11:43:41;100366.69;;;23.03;100.00
15634;BME280;14654;48.898;8.308;2022-10-16T11:46:12;100356.31;;;23.00;100.00
15634;BME280;14654;48.898;8.308;2022-10-16T11:48:55;100361.69;;;22.98;100.00
15634;BME280;14654;48.898;8.308;2022-10-16T11:51:42;100372.97;;;22.86;100.00
15634;BME280;14654;48.898;8.308;2022-10-16T11:54:22;100371.72;;;22.77;100.00
15634;BME280;14654;48.898;8.308;2022-10-16T11:56:53;100382.72;;;22.69;100.00
15634;BME280;14654;48.898;8.308;2022-10-16T11:59:36;100380.19;;;22.68;100.00
15634;BME280;14654;48.898;8.308;2022-10-16T12:05:28;100370.03;;;22.76;100.00
15634;BME280;14654;48.898;8.308;2022-10-16T12:08:20;100367.13;;;22.81;100.00
15634;BME280;14654;48.898;8.308;2022-10-16T12:10:47;100367.97;;;22.81;100.00
15634;BME280;14654;48.898;8.308;2022-10-16T12:13:29;100366.25;;;22.80;100.00
15634;BME280;14654;48.898;8.308;2022-10-16T12:18:43;100360.66;;;22.71;100.00
15634;BME280;14654;48.898;8.308;2022-10-16T12:21:10;100356.59;;;22.65;100.00
15634;BME280;14654;48.898;8.308;2022-10-16T12:23:53;100360.56;;;22.58;100.00
15634;BME280;14654;48.898;8.308;2022-10-16T12:26:27;100360.91;;;22.51;100.00
15634;BME280;14654;48.898;8.308;2022-10-16T12:28:55;100357.69;;;22.46;100.00
15634;BME280;14654;48.898;8.308;2022-10-16T12:31:21;100355.91;;;22.47;100.00
15634;BME280;14654;48.898;8.308;2022-10-16T12:33:58;100357.94;;;22.42;100.00
15634;BME280;14654;48.898;8.308;2022-10-16T12:36:29;100353.00;;;22.35;100.00
15634;BME280;14654;48.898;8.308;2022-10-16T12:38:55;100356.41;;;22.37;100.00
15634;BME280;14654;48.898;8.308;2022-10-16T12:41:29;100351.03;;;22.39;100.00
15634;BME280;14654;48.898;8.308;2022-10-16T12:43:55;100356.06;;;22.44;100.00
15634;BME280;14654;48.898;8.308;2022-10-16T12:51:38;100357.22;;;22.54;100.00
15634;BME280;14654;48.898;8.308;2022-10-16T12:56:44;100364.31;;;22.53;100.00
15634;BME280;14654;48.898;8.308;2022-10-16T12:59:30;100363.81;;;22.47;100.00
15634;BME280;14654;48.898;8.308;2022-10-16T13:04:50;100359.13;;;22.36;100.00
15634;BME280;14654;48.898;8.308;2022-10-16T13:10:28;100360.25;;;22.16;100.00
15634;BME280;14654;48.898;8.308;2022-10-16T13:16:18;100358.59;;;21.99;100.00
15634;BME280;14654;48.898;8.308;2022-10-16T13:22:08;100357.31;;;21.90;100.00
15634;BME280;14654;48.898;8.308;2022-10-16T13:28:10;100352.38;;;21.84;100.00
15634;BME280;14654;48.898;8.308;2022-10-16T13:30:42;100351.03;;;21.76;100.00
15634;BME280;14654;48.898;8.308;2022-10-16T13:33:15;100352.19;;;21.71;100.00
15634;BME280;14654;48.898;8.308;2022-10-16T13:35:55;100353.47;;;21.64;100.00
15634;BME280;14654;48.898;8.308;2022-10-16T13:38:23;100351.75;;;21.62;100.00
15634;BME280;14654;48.898;8.308;2022-10-16T13:40:51;100359.88;;;21.58;100.00
15634;BME280;14654;48.898;8.308;2022-10-16T13:43:19;100359.63;;;21.46;100.00
15634;BME280;14654;48.898;8.308;2022-10-16T13:45:56;100351.41;;;21.35;100.00
15634;BME280;14654;48.898;8.308;2022-10-16T13:48:22;100354.47;;;21.27;100.00
15634;BME280;14654;48.898;8.308;2022-10-16T13:50:58;100352.94;;;21.23;100.00
15634;BME280;14654;48.898;8.308;2022-10-16T13:53:23;100359.53;;;21.14;100.00
15634;BME280;14654;48.898;8.308;2022-10-16T13:55:49;100353.81;;;21.06;100.00
15634;BME280;14654;48.898;8.308;2022-10-16T13:58:14;100355.06;;;20.99;100.00
15634;BME280;14654;48.898;8.308;2022-10-16T14:00:42;100361.50;;;20.93;100.00
15634;BME280;14654;48.898;8.308;2022-10-16T14:03:21;100353.81;;;20.89;100.00
15634;BME280;14654;48.898;8.308;2022-10-16T14:05:58;100355.69;;;20.86;100.00
15634;BME280;14654;48.898;8.308;2022-10-16T14:08:26;100355.69;;;20.86;100.00
15634;BME280;14654;48.898;8.308;2022-10-16T14:10:59;100358.88;;;20.93;100.00
15634;BME280;14654;48.898;8.308;2022-10-16T14:13:37;100366.13;;;21.06;100.00